createdAt,value
2022-10-05T00:00:26.440Z,989.51
2022-10-05T00:01:26.449Z,989.55
2022-10-05T00:02:26.414Z,989.57
2022-10-05T00:03:26.411Z,989.52
2022-10-05T00:04:26.376Z,989.55
2022-10-05T00:05:26.385Z,989.59
2022-10-05T00:06:26.361Z,989.58
2022-10-05T00:07:26.341Z,989.56
2022-10-05T00:08:26.359Z,989.52
2022-10-05T00:09:26.310Z,989.53
2022-10-05T00:10:26.312Z,989.57
2022-10-05T00:11:26.302Z,989.59
2022-10-05T00:12:26.305Z,989.57
2022-10-05T00:13:26.282Z,989.51
2022-10-05T00:14:26.281Z,989.52
2022-10-05T00:15:26.259Z,989.53
2022-10-05T00:16:26.290Z,989.51
2022-10-05T00:17:26.244Z,989.54
2022-10-05T00:18:26.235Z,989.57
2022-10-05T00:19:26.202Z,989.55
2022-10-05T00:20:26.212Z,989.52
2022-10-05T00:21:26.172Z,989.49
2022-10-05T00:22:26.184Z,989.50
2022-10-05T00:23:26.174Z,989.52
2022-10-05T00:24:26.169Z,989.52
2022-10-05T00:25:26.155Z,989.47
2022-10-05T00:26:26.146Z,989.53
2022-10-05T00:27:26.132Z,989.47
2022-10-05T00:28:26.182Z,989.41
2022-10-05T00:29:26.114Z,989.41
2022-10-05T00:30:26.095Z,989.44
2022-10-05T00:31:26.148Z,989.43
2022-10-05T00:32:26.105Z,989.40
2022-10-05T00:33:26.055Z,989.41
2022-10-05T00:34:26.046Z,989.42
2022-10-05T00:35:26.038Z,989.41
2022-10-05T00:36:26.048Z,989.41
2022-10-05T00:37:26.040Z,989.39
2022-10-05T00:38:26.010Z,989.39
2022-10-05T00:39:26.016Z,989.37
2022-10-05T00:40:25.995Z,989.42
2022-10-05T00:41:25.967Z,989.42
2022-10-05T00:42:25.969Z,989.49
2022-10-05T00:43:25.948Z,989.43
2022-10-05T00:44:25.970Z,989.42
2022-10-05T00:45:26.007Z,989.44
2022-10-05T00:46:25.919Z,989.43
2022-10-05T00:47:25.916Z,989.38
2022-10-05T00:48:25.898Z,989.38
2022-10-05T00:49:25.907Z,989.43
2022-10-05T00:50:25.875Z,989.42
2022-10-05T00:51:25.858Z,989.41
2022-10-05T00:52:25.871Z,989.38
2022-10-05T00:53:25.848Z,989.35
2022-10-05T00:54:25.851Z,989.36
2022-10-05T00:55:25.830Z,989.39
2022-10-05T00:56:25.818Z,989.32
2022-10-05T00:57:25.793Z,989.32
2022-10-05T00:58:25.801Z,989.36
2022-10-05T00:59:25.787Z,989.34
2022-10-05T01:00:25.779Z,989.41
2022-10-05T01:01:25.833Z,989.36
2022-10-05T01:02:25.801Z,989.36
2022-10-05T01:03:25.740Z,989.38
2022-10-05T01:04:25.761Z,989.39
2022-10-05T01:05:25.710Z,989.35
2022-10-05T01:06:25.701Z,989.41
2022-10-05T01:07:25.711Z,989.50
2022-10-05T01:08:25.714Z,989.43
2022-10-05T01:09:25.684Z,989.56
2022-10-05T01:10:25.660Z,989.51
2022-10-05T01:11:25.641Z,989.46
2022-10-05T01:12:25.643Z,989.40
2022-10-05T01:13:25.643Z,989.40
2022-10-05T01:14:25.652Z,989.37
2022-10-05T01:15:25.622Z,989.40
2022-10-05T01:16:25.674Z,989.46
2022-10-05T01:17:25.614Z,989.43
2022-10-05T01:18:25.582Z,989.48
2022-10-05T01:19:25.573Z,989.44
2022-10-05T01:20:25.564Z,989.50
2022-10-05T01:21:25.551Z,989.44
2022-10-05T01:22:25.543Z,989.50
2022-10-05T01:23:25.571Z,989.47
2022-10-05T01:24:25.538Z,989.50
2022-10-05T01:25:25.549Z,989.46
2022-10-05T01:26:25.530Z,989.36
2022-10-05T01:27:25.520Z,989.42
2022-10-05T01:28:25.586Z,989.41
2022-10-05T01:29:25.481Z,989.44
2022-10-05T01:30:25.483Z,989.44
2022-10-05T01:31:25.558Z,989.44
2022-10-05T01:32:25.452Z,989.44
2022-10-05T01:33:25.448Z,989.41
2022-10-05T01:34:25.432Z,989.42
2022-10-05T01:35:25.447Z,989.42
2022-10-05T01:36:25.440Z,989.41
2022-10-05T01:37:25.412Z,989.38
2022-10-05T01:38:25.383Z,989.41
2022-10-05T01:39:25.373Z,989.43
2022-10-05T01:40:25.383Z,989.42
2022-10-05T01:41:25.364Z,989.43
2022-10-05T01:42:25.383Z,989.43
2022-10-05T01:43:25.335Z,989.42
2022-10-05T01:44:25.327Z,989.39
2022-10-05T01:45:25.313Z,989.35
2022-10-05T01:46:25.323Z,989.35
2022-10-05T01:47:25.303Z,989.28
2022-10-05T01:48:25.294Z,989.26
2022-10-05T01:49:25.296Z,989.28
2022-10-05T01:50:25.274Z,989.25
2022-10-05T01:51:25.265Z,989.35
2022-10-05T01:52:25.237Z,989.31
2022-10-05T01:53:25.245Z,989.28
2022-10-05T01:54:25.236Z,989.15
2022-10-05T01:55:25.204Z,989.21
2022-10-05T01:56:25.195Z,989.21
2022-10-05T01:57:25.175Z,989.19
2022-10-05T01:58:25.174Z,989.17
2022-10-05T01:59:25.186Z,989.09
2022-10-05T02:00:25.158Z,989.12
2022-10-05T02:01:25.241Z,989.11
2022-10-05T02:02:25.206Z,989.12
2022-10-05T02:03:25.116Z,989.15
2022-10-05T02:04:59.960Z,989.13
2022-10-05T02:05:26.096Z,989.15
2022-10-05T02:06:25.104Z,989.14
2022-10-05T02:07:25.087Z,989.13
2022-10-05T02:08:25.097Z,989.14
2022-10-05T02:09:25.067Z,989.16
2022-10-05T02:10:25.050Z,989.18
2022-10-05T02:11:25.047Z,989.16
2022-10-05T02:12:25.040Z,989.23
2022-10-05T02:13:25.048Z,989.22
2022-10-05T02:14:25.037Z,989.17
2022-10-05T02:15:24.988Z,989.16
2022-10-05T02:16:25.101Z,989.17
2022-10-05T02:17:24.981Z,989.19
2022-10-05T02:18:24.989Z,989.17
2022-10-05T02:19:24.973Z,989.11
2022-10-05T02:20:24.963Z,989.04
2022-10-05T02:21:24.957Z,989.09
2022-10-05T02:22:24.919Z,989.03
2022-10-05T02:23:24.916Z,989.06
2022-10-05T02:24:24.929Z,989.02
2022-10-05T02:25:24.900Z,989.04
2022-10-05T02:26:24.888Z,989.06
2022-10-05T02:27:24.872Z,989.02
2022-10-05T02:28:24.928Z,989.06
2022-10-05T02:29:24.840Z,989.02
2022-10-05T02:30:24.860Z,989.03
2022-10-05T02:31:24.883Z,989.03
2022-10-05T02:32:24.820Z,989.03
2022-10-05T02:33:24.818Z,989.00
2022-10-05T02:34:24.801Z,989.01
2022-10-05T02:35:24.791Z,989.01
2022-10-05T02:36:24.804Z,988.95
2022-10-05T02:37:24.772Z,988.93
2022-10-05T02:38:24.748Z,988.95
2022-10-05T02:39:24.732Z,988.90
2022-10-05T02:40:24.733Z,988.96
2022-10-05T02:41:24.723Z,988.92
2022-10-05T02:42:24.711Z,988.95
2022-10-05T02:43:24.702Z,988.98
2022-10-05T02:44:24.683Z,988.94
2022-10-05T02:45:24.685Z,988.97
2022-10-05T02:46:24.741Z,988.95
2022-10-05T02:47:24.654Z,988.95
2022-10-05T02:48:24.670Z,988.97
2022-10-05T02:49:24.635Z,988.94
2022-10-05T02:50:24.615Z,989.06
2022-10-05T02:51:24.624Z,989.03
2022-10-05T02:52:24.613Z,989.06
2022-10-05T02:53:24.614Z,989.15
2022-10-05T02:54:24.604Z,989.10
2022-10-05T02:55:24.594Z,989.10
2022-10-05T02:56:24.575Z,989.11
2022-10-05T02:57:24.542Z,989.10
2022-10-05T02:58:24.536Z,989.14
2022-10-05T02:59:24.545Z,989.09
2022-10-05T03:00:24.538Z,989.18
2022-10-05T03:01:24.535Z,989.13
2022-10-05T03:02:24.597Z,989.16
2022-10-05T03:03:24.477Z,989.17
2022-10-05T03:04:24.486Z,989.18
2022-10-05T03:05:24.467Z,989.17
2022-10-05T03:06:24.456Z,989.21
2022-10-05T03:07:24.447Z,989.18
2022-10-05T03:08:24.444Z,989.17
2022-10-05T03:09:24.416Z,989.15
2022-10-05T03:10:24.406Z,989.16
2022-10-05T03:11:24.398Z,989.17
2022-10-05T03:12:24.397Z,989.15
2022-10-05T03:13:24.402Z,989.18
2022-10-05T03:14:24.397Z,989.12
2022-10-05T03:15:24.347Z,989.13
2022-10-05T03:16:24.383Z,989.10
2022-10-05T03:17:24.338Z,989.17
2022-10-05T03:18:28.568Z,989.15
2022-10-05T03:19:25.321Z,989.11
2022-10-05T03:20:24.309Z,989.12
2022-10-05T03:21:24.318Z,989.10
2022-10-05T03:22:24.278Z,989.10
2022-10-05T03:23:24.269Z,989.09
2022-10-05T03:24:24.277Z,989.07
2022-10-05T03:25:24.258Z,989.05
2022-10-05T03:26:24.271Z,989.06
2022-10-05T03:27:24.219Z,989.06
2022-10-05T03:28:24.427Z,989.03
2022-10-05T03:29:24.199Z,989.01
2022-10-05T03:30:24.209Z,989.02
2022-10-05T03:31:24.224Z,988.93
2022-10-05T03:32:24.170Z,988.91
2022-10-05T03:33:24.192Z,988.94
2022-10-05T03:34:24.162Z,988.93
2022-10-05T03:35:24.151Z,988.87
2022-10-05T03:36:24.149Z,988.84
2022-10-05T03:37:24.142Z,988.86
2022-10-05T03:38:24.114Z,988.82
2022-10-05T03:39:24.113Z,988.85
2022-10-05T03:40:24.100Z,988.77
2022-10-05T03:41:24.089Z,988.84
2022-10-05T03:42:24.061Z,988.79
2022-10-05T03:43:24.079Z,988.78
2022-10-05T03:44:24.052Z,988.77
2022-10-05T03:45:24.043Z,988.78
2022-10-05T03:46:24.095Z,988.75
2022-10-05T03:47:24.019Z,988.72
2022-10-05T03:48:24.024Z,988.75
2022-10-05T03:49:24.015Z,988.70
2022-10-05T03:50:23.985Z,988.75
2022-10-05T03:51:23.994Z,988.78
2022-10-05T03:52:23.973Z,988.75
2022-10-05T03:53:23.966Z,988.74
2022-10-05T03:54:23.947Z,988.69
2022-10-05T03:55:23.925Z,988.68
2022-10-05T03:56:23.913Z,988.73
2022-10-05T03:57:23.906Z,988.67
2022-10-05T03:58:23.901Z,988.69
2022-10-05T03:59:24.672Z,988.68
2022-10-05T04:00:23.889Z,988.68
2022-10-05T04:01:23.949Z,988.67
2022-10-05T04:02:23.908Z,988.69
2022-10-05T04:03:23.873Z,988.68
2022-10-05T04:04:23.845Z,988.63
2022-10-05T04:05:23.814Z,988.64
2022-10-05T04:06:23.826Z,988.69
2022-10-05T04:07:23.795Z,988.65
2022-10-05T04:08:23.804Z,988.68
2022-10-05T04:09:23.785Z,988.70
2022-10-05T04:10:23.765Z,988.64
2022-10-05T04:11:23.765Z,988.55
2022-10-05T04:12:23.793Z,988.66
2022-10-05T04:13:23.735Z,988.62
2022-10-05T04:14:23.758Z,988.66
2022-10-05T04:15:23.719Z,988.64
2022-10-05T04:16:23.787Z,988.58
2022-10-05T04:17:23.687Z,988.61
2022-10-05T04:18:23.710Z,988.60
2022-10-05T04:19:23.684Z,988.66
2022-10-05T04:20:23.677Z,988.67
2022-10-05T04:21:24.187Z,988.62
2022-10-05T04:22:23.667Z,988.61
2022-10-05T04:23:23.627Z,988.63
2022-10-05T04:24:23.670Z,988.63
2022-10-05T04:25:23.619Z,988.63
2022-10-05T04:26:23.618Z,988.61
2022-10-05T04:27:23.608Z,988.63
2022-10-05T04:28:27.011Z,988.62
2022-10-05T04:29:24.595Z,988.62
2022-10-05T04:30:23.588Z,988.59
2022-10-05T04:31:23.640Z,988.57
2022-10-05T04:32:23.561Z,988.58
2022-10-05T04:33:23.548Z,988.57
2022-10-05T04:34:23.526Z,988.63
2022-10-05T04:35:23.547Z,988.55
2022-10-05T04:36:23.546Z,988.56
2022-10-05T04:37:23.489Z,988.63
2022-10-05T04:38:23.481Z,988.58
2022-10-05T04:39:23.460Z,988.54
2022-10-05T04:40:23.450Z,988.56
2022-10-05T04:41:23.454Z,988.58
2022-10-05T04:42:23.459Z,988.58
2022-10-05T04:43:23.410Z,988.60
2022-10-05T04:44:23.420Z,988.64
2022-10-05T04:45:23.411Z,988.59
2022-10-05T04:46:23.453Z,988.62
2022-10-05T04:47:23.377Z,988.64
2022-10-05T04:48:23.378Z,988.62
2022-10-05T04:49:23.356Z,988.63
2022-10-05T04:50:23.351Z,988.68
2022-10-05T04:51:23.351Z,988.72
2022-10-05T04:52:23.353Z,988.67
2022-10-05T04:53:23.321Z,988.69
2022-10-05T04:54:23.323Z,988.69
2022-10-05T04:55:23.321Z,988.71
2022-10-05T04:56:23.279Z,988.71
2022-10-05T04:57:23.292Z,988.79
2022-10-05T04:58:23.252Z,988.78
2022-10-05T04:59:23.253Z,988.79
2022-10-05T05:00:23.244Z,988.70
2022-10-05T05:01:23.258Z,988.76
2022-10-05T05:02:23.212Z,988.82
2022-10-05T05:03:23.251Z,988.83
2022-10-05T05:04:23.232Z,988.91
2022-10-05T05:05:23.186Z,988.93
2022-10-05T05:06:23.163Z,988.96
2022-10-05T05:07:23.163Z,988.96
2022-10-05T05:08:23.144Z,988.97
2022-10-05T05:09:23.170Z,988.96
2022-10-05T05:10:23.124Z,988.97
2022-10-05T05:11:24.679Z,989.05
2022-10-05T05:12:23.125Z,989.08
2022-10-05T05:13:23.125Z,989.02
2022-10-05T05:14:23.084Z,988.99
2022-10-05T05:15:23.065Z,988.99
2022-10-05T05:16:23.133Z,989.03
2022-10-05T05:17:23.078Z,989.02
2022-10-05T05:18:23.060Z,989.04
2022-10-05T05:19:23.055Z,989.00
2022-10-05T05:20:23.015Z,989.06
2022-10-05T05:21:23.022Z,989.02
2022-10-05T05:22:23.032Z,989.02
2022-10-05T05:23:22.995Z,989.01
2022-10-05T05:24:22.996Z,989.01
2022-10-05T05:25:22.957Z,989.01
2022-10-05T05:26:22.957Z,989.07
2022-10-05T05:27:22.957Z,989.01
2022-10-05T05:28:23.025Z,989.05
2022-10-05T05:29:22.916Z,989.11
2022-10-05T05:30:22.978Z,989.06
2022-10-05T05:31:22.924Z,989.09
2022-10-05T05:32:22.907Z,989.06
2022-10-05T05:33:22.876Z,989.19
2022-10-05T05:34:22.867Z,989.11
2022-10-05T05:35:22.867Z,989.13
2022-10-05T05:36:23.508Z,989.20
2022-10-05T05:37:22.838Z,989.21
2022-10-05T05:38:22.851Z,989.21
2022-10-05T05:39:22.825Z,989.24
2022-10-05T05:40:22.815Z,989.26
2022-10-05T05:41:22.790Z,989.25
2022-10-05T05:42:22.813Z,989.27
2022-10-05T05:43:22.780Z,989.34
2022-10-05T05:44:22.768Z,989.35
2022-10-05T05:45:22.769Z,989.26
2022-10-05T05:46:33.953Z,989.36
2022-10-05T05:47:23.796Z,989.36
2022-10-05T05:48:22.727Z,989.33
2022-10-05T05:49:22.728Z,989.34
2022-10-05T05:50:22.689Z,989.33
2022-10-05T05:51:22.689Z,989.34
2022-10-05T05:52:22.670Z,989.39
2022-10-05T05:53:22.682Z,989.37
2022-10-05T05:54:22.650Z,989.41
2022-10-05T05:55:26.449Z,989.39
2022-10-05T05:56:23.641Z,989.41
2022-10-05T05:57:22.640Z,989.40
2022-10-05T05:58:22.629Z,989.36
2022-10-05T05:59:22.621Z,989.43
2022-10-05T06:00:22.608Z,989.45
2022-10-05T06:01:32.636Z,989.43
2022-10-05T06:02:23.723Z,989.46
2022-10-05T06:03:22.718Z,989.50
2022-10-05T06:04:22.563Z,989.47
2022-10-05T06:05:22.552Z,989.49
2022-10-05T06:06:22.532Z,989.52
2022-10-05T06:07:25.699Z,989.54
2022-10-05T06:08:23.523Z,989.51
2022-10-05T06:09:22.512Z,989.59
2022-10-05T06:10:22.490Z,989.56
2022-10-05T06:11:22.483Z,989.52
2022-10-05T06:12:22.491Z,989.50
2022-10-05T06:13:22.472Z,989.51
2022-10-05T06:14:22.491Z,989.55
2022-10-05T06:15:22.434Z,989.54
2022-10-05T06:16:22.454Z,989.58
2022-10-05T06:17:22.413Z,989.61
2022-10-05T06:18:22.401Z,989.65
2022-10-05T06:19:22.426Z,989.63
2022-10-05T06:20:22.373Z,989.68
2022-10-05T06:21:22.373Z,989.71
2022-10-05T06:22:22.367Z,989.77
2022-10-05T06:23:22.383Z,989.74
2022-10-05T06:24:22.355Z,989.80
2022-10-05T06:25:22.343Z,989.79
2022-10-05T06:26:22.344Z,989.80
2022-10-05T06:27:22.303Z,989.79
2022-10-05T06:28:22.320Z,989.81
2022-10-05T06:29:22.395Z,989.84
2022-10-05T06:30:22.276Z,989.82
2022-10-05T06:31:22.333Z,989.81
2022-10-05T06:32:22.263Z,989.89
2022-10-05T06:33:22.276Z,989.88
2022-10-05T06:34:22.225Z,989.92
2022-10-05T06:35:22.234Z,989.88
2022-10-05T06:36:22.215Z,989.90
2022-10-05T06:37:22.196Z,989.85
2022-10-05T06:38:22.213Z,989.87
2022-10-05T06:39:22.181Z,989.82
2022-10-05T06:40:22.157Z,989.85
2022-10-05T06:41:22.166Z,989.84
2022-10-05T06:42:22.154Z,989.86
2022-10-05T06:43:22.163Z,989.89
2022-10-05T06:44:22.117Z,989.93
2022-10-05T06:45:22.118Z,989.90
2022-10-05T06:46:22.226Z,989.93
2022-10-05T06:47:22.127Z,989.94
2022-10-05T06:48:22.098Z,989.98
2022-10-05T06:49:22.067Z,990.02
2022-10-05T06:50:22.092Z,990.01
2022-10-05T06:51:22.058Z,989.99
2022-10-05T06:52:22.028Z,989.95
2022-10-05T06:53:22.027Z,989.97
2022-10-05T06:54:22.029Z,989.98
2022-10-05T06:55:22.021Z,989.97
2022-10-05T06:56:22.018Z,989.99
2022-10-05T06:57:21.997Z,990.04
2022-10-05T06:58:21.982Z,989.98
2022-10-05T06:59:21.959Z,990.05
2022-10-05T07:00:21.960Z,990.00
2022-10-05T07:01:22.012Z,990.03
2022-10-05T07:02:22.026Z,990.05
2022-10-05T07:03:21.922Z,990.05
2022-10-05T07:04:21.901Z,989.97
2022-10-05T07:05:21.909Z,989.95
2022-10-05T07:06:21.930Z,989.95
2022-10-05T07:07:21.877Z,989.94
2022-10-05T07:08:21.890Z,989.94
2022-10-05T07:09:21.869Z,989.95
2022-10-05T07:10:21.850Z,989.96
2022-10-05T07:11:21.871Z,989.98
2022-10-05T07:12:21.820Z,990.01
2022-10-05T07:13:21.832Z,990.04
2022-10-05T07:14:21.800Z,989.98
2022-10-05T07:15:21.791Z,990.01
2022-10-05T07:16:21.828Z,990.05
2022-10-05T07:17:21.783Z,990.07
2022-10-05T07:18:21.753Z,990.02
2022-10-05T07:19:21.769Z,990.01
2022-10-05T07:20:21.733Z,990.03
2022-10-05T07:21:21.734Z,990.03
2022-10-05T07:22:21.741Z,989.96
2022-10-05T07:23:21.702Z,990.02
2022-10-05T07:24:21.702Z,990.01
2022-10-05T07:25:21.684Z,989.99
2022-10-05T07:26:21.675Z,990.00
2022-10-05T07:27:21.662Z,990.02
2022-10-05T07:28:21.728Z,990.01
2022-10-05T07:29:21.651Z,989.98
2022-10-05T07:30:21.640Z,990.00
2022-10-05T07:31:21.706Z,990.01
2022-10-05T07:32:21.613Z,989.98
2022-10-05T07:33:21.603Z,990.02
2022-10-05T07:34:21.604Z,990.01
2022-10-05T07:35:21.583Z,990.05
2022-10-05T07:36:21.585Z,990.02
2022-10-05T07:37:21.575Z,990.04
2022-10-05T07:38:21.574Z,990.06
2022-10-05T07:39:21.542Z,990.08
2022-10-05T07:40:21.517Z,990.00
2022-10-05T07:41:21.546Z,990.00
2022-10-05T07:42:21.515Z,990.08
2022-10-05T07:43:21.508Z,990.02
2022-10-05T07:44:21.506Z,990.04
2022-10-05T07:45:21.496Z,989.97
2022-10-05T07:46:21.547Z,990.05
2022-10-05T07:47:21.464Z,990.05
2022-10-05T07:48:21.457Z,990.08
2022-10-05T07:49:21.444Z,990.08
2022-10-05T07:50:21.417Z,990.15
2022-10-05T07:51:21.415Z,990.15
2022-10-05T07:52:21.388Z,990.16
2022-10-05T07:53:21.409Z,990.23
2022-10-05T07:54:21.397Z,990.18
2022-10-05T07:55:21.371Z,990.19
2022-10-05T07:56:21.398Z,990.21
2022-10-05T07:57:21.348Z,990.29
2022-10-05T07:58:21.349Z,990.24
2022-10-05T07:59:21.318Z,990.23
2022-10-05T08:00:21.381Z,990.21
2022-10-05T08:01:21.341Z,990.22
2022-10-05T08:02:21.384Z,990.22
2022-10-05T08:03:21.312Z,990.21
2022-10-05T08:04:21.316Z,990.21
2022-10-05T08:05:21.267Z,990.21
2022-10-05T08:06:21.259Z,990.23
2022-10-05T08:07:21.300Z,990.25
2022-10-05T08:08:21.229Z,990.26
2022-10-05T08:09:21.230Z,990.17
2022-10-05T08:10:21.256Z,990.22
2022-10-05T08:11:21.207Z,990.12
2022-10-05T08:12:21.181Z,990.21
2022-10-05T08:13:21.170Z,990.20
2022-10-05T08:14:21.171Z,990.21
2022-10-05T08:15:21.153Z,990.19
2022-10-05T08:16:21.207Z,990.22
2022-10-05T08:17:25.433Z,990.12
2022-10-05T08:18:22.135Z,990.10
2022-10-05T08:19:21.102Z,990.19
2022-10-05T08:20:21.230Z,990.15
2022-10-05T08:21:21.102Z,990.21
2022-10-05T08:22:21.100Z,990.15
2022-10-05T08:23:21.082Z,990.11
2022-10-05T08:24:21.063Z,990.13
2022-10-05T08:25:21.065Z,990.10
2022-10-05T08:26:21.063Z,990.11
2022-10-05T08:27:21.025Z,990.08
2022-10-05T08:28:21.074Z,990.12
2022-10-05T08:29:21.012Z,990.11
2022-10-05T08:30:21.026Z,990.15
2022-10-05T08:31:21.055Z,990.09
2022-10-05T08:32:20.984Z,990.10
2022-10-05T08:33:20.981Z,990.07
2022-10-05T08:34:20.955Z,990.15
2022-10-05T08:35:20.945Z,990.15
2022-10-05T08:36:20.933Z,990.06
2022-10-05T08:37:20.935Z,990.04
2022-10-05T08:38:20.905Z,990.07
2022-10-05T08:39:20.904Z,990.00
2022-10-05T08:40:20.904Z,990.06
2022-10-05T08:41:20.874Z,990.05
2022-10-05T08:42:20.882Z,990.04
2022-10-05T08:43:20.874Z,990.01
2022-10-05T08:44:20.884Z,990.03
2022-10-05T08:45:20.836Z,990.01
2022-10-05T08:46:20.872Z,989.95
2022-10-05T08:47:20.805Z,989.93
2022-10-05T08:48:20.805Z,989.93
2022-10-05T08:49:20.808Z,989.90
2022-10-05T08:50:20.786Z,989.94
2022-10-05T08:51:20.786Z,989.92
2022-10-05T08:52:20.757Z,989.94
2022-10-05T08:53:20.755Z,989.96
2022-10-05T08:54:20.738Z,990.00
2022-10-05T08:55:20.750Z,990.03
2022-10-05T08:56:23.119Z,989.99
2022-10-05T08:57:21.735Z,989.98
2022-10-05T08:58:20.688Z,989.99
2022-10-05T08:59:20.698Z,989.94
2022-10-05T09:00:20.679Z,989.95
2022-10-05T09:01:20.759Z,989.98
2022-10-05T09:02:20.705Z,989.88
2022-10-05T09:03:20.651Z,989.94
2022-10-05T09:04:20.633Z,989.91
2022-10-05T09:05:20.608Z,989.92
2022-10-05T09:06:20.599Z,989.94
2022-10-05T09:07:20.607Z,989.93
2022-10-05T09:08:20.631Z,989.89
2022-10-05T09:09:20.589Z,989.93
2022-10-05T09:10:20.560Z,989.92
2022-10-05T09:11:20.570Z,989.90
2022-10-05T09:12:20.556Z,989.88
2022-10-05T09:13:20.538Z,989.92
2022-10-05T09:14:20.528Z,989.88
2022-10-05T09:15:25.853Z,989.87
2022-10-05T09:16:21.541Z,989.93
2022-10-05T09:17:20.494Z,989.85
2022-10-05T09:18:20.491Z,989.84
2022-10-05T09:19:20.471Z,989.87
2022-10-05T09:20:20.451Z,989.84
2022-10-05T09:21:20.511Z,989.78
2022-10-05T09:22:20.434Z,989.83
2022-10-05T09:23:20.422Z,989.83
2022-10-05T09:24:20.432Z,989.79
2022-10-05T09:25:20.412Z,989.83
2022-10-05T09:26:20.428Z,989.82
2022-10-05T09:27:20.409Z,989.78
2022-10-05T09:28:20.442Z,989.76
2022-10-05T09:29:20.362Z,989.69
2022-10-05T09:30:20.343Z,989.74
2022-10-05T09:31:20.406Z,989.71
2022-10-05T09:32:20.360Z,989.73
2022-10-05T09:33:20.334Z,989.69
2022-10-05T09:34:20.314Z,989.77
2022-10-05T09:35:20.313Z,989.75
2022-10-05T09:36:20.302Z,989.74
2022-10-05T09:37:20.285Z,989.74
2022-10-05T09:38:20.284Z,989.74
2022-10-05T09:39:20.275Z,989.69
2022-10-05T09:40:20.246Z,989.67
2022-10-05T09:41:20.255Z,989.70
2022-10-05T09:42:20.265Z,989.68
2022-10-05T09:43:20.220Z,989.67
2022-10-05T09:44:20.215Z,989.60
2022-10-05T09:45:21.480Z,989.57
2022-10-05T09:46:20.305Z,989.56
2022-10-05T09:47:20.197Z,989.56
2022-10-05T09:48:20.158Z,989.54
2022-10-05T09:49:20.167Z,989.59
2022-10-05T09:50:20.154Z,989.50
2022-10-05T09:51:20.167Z,989.59
2022-10-05T09:52:20.131Z,989.56
2022-10-05T09:53:20.096Z,989.50
2022-10-05T09:54:20.122Z,989.49
2022-10-05T09:55:20.077Z,989.53
2022-10-05T09:56:20.123Z,989.48
2022-10-05T09:57:20.057Z,989.48
2022-10-05T09:58:20.068Z,989.50
2022-10-05T09:59:20.050Z,989.44
2022-10-05T10:00:20.058Z,989.47
2022-10-05T10:01:33.198Z,989.43
2022-10-05T10:02:21.132Z,989.44
2022-10-05T10:03:20.029Z,989.41
2022-10-05T10:04:19.999Z,989.41
2022-10-05T10:05:19.970Z,989.42
2022-10-05T10:06:19.990Z,989.43
2022-10-05T10:07:19.951Z,989.41
2022-10-05T10:08:19.962Z,989.31
2022-10-05T10:09:19.970Z,989.28
2022-10-05T10:10:19.921Z,989.24
2022-10-05T10:11:19.948Z,989.25
2022-10-05T10:12:19.939Z,989.23
2022-10-05T10:13:19.901Z,989.19
2022-10-05T10:14:19.891Z,989.22
2022-10-05T10:15:19.872Z,989.21
2022-10-05T10:16:19.984Z,989.17
2022-10-05T10:17:19.885Z,989.18
2022-10-05T10:18:19.876Z,989.23
2022-10-05T10:19:19.839Z,989.21
2022-10-05T10:20:19.844Z,989.22
2022-10-05T10:21:19.834Z,989.18
2022-10-05T10:22:19.813Z,989.17
2022-10-05T10:23:19.791Z,989.11
2022-10-05T10:24:19.787Z,989.09
2022-10-05T10:25:19.753Z,989.07
2022-10-05T10:26:19.758Z,989.07
2022-10-05T10:27:19.755Z,989.10
2022-10-05T10:28:20.001Z,989.11
2022-10-05T10:29:19.771Z,989.05
2022-10-05T10:30:19.716Z,989.08
2022-10-05T10:31:19.736Z,989.00
2022-10-05T10:32:19.705Z,989.07
2022-10-05T10:33:19.698Z,989.01
2022-10-05T10:34:19.694Z,988.98
2022-10-05T10:35:19.995Z,989.00
2022-10-05T10:36:19.651Z,988.97
2022-10-05T10:37:19.657Z,988.99
2022-10-05T10:38:19.617Z,989.01
2022-10-05T10:39:19.639Z,989.02
2022-10-05T10:40:19.604Z,989.00
2022-10-05T10:41:19.592Z,988.95
2022-10-05T10:42:23.886Z,989.00
2022-10-05T10:43:20.567Z,988.96
2022-10-05T10:44:19.588Z,988.90
2022-10-05T10:45:19.541Z,988.94
2022-10-05T10:46:19.593Z,988.93
2022-10-05T10:47:19.528Z,988.91
2022-10-05T10:48:19.529Z,988.89
2022-10-05T10:49:19.499Z,988.91
2022-10-05T10:50:19.491Z,988.85
2022-10-05T10:51:19.489Z,988.88
2022-10-05T10:52:19.477Z,988.87
2022-10-05T10:53:19.490Z,988.77
2022-10-05T10:54:19.451Z,988.84
2022-10-05T10:55:19.463Z,988.76
2022-10-05T10:56:19.436Z,988.72
2022-10-05T10:57:19.428Z,988.73
2022-10-05T10:58:19.477Z,988.69
2022-10-05T10:59:19.413Z,988.70
2022-10-05T11:00:19.389Z,988.71
2022-10-05T11:01:19.460Z,988.70
2022-10-05T11:02:19.439Z,988.73
2022-10-05T11:03:19.352Z,988.66
2022-10-05T11:04:19.360Z,988.62
2022-10-05T11:05:19.335Z,988.59
2022-10-05T11:06:19.343Z,988.63
2022-10-05T11:07:19.313Z,988.60
2022-10-05T11:08:19.303Z,988.60
2022-10-05T11:09:19.301Z,988.52
2022-10-05T11:10:19.314Z,988.62
2022-10-05T11:11:19.275Z,988.46
2022-10-05T11:12:19.274Z,988.53
2022-10-05T11:13:19.249Z,988.44
2022-10-05T11:14:19.255Z,988.48
2022-10-05T11:15:19.236Z,988.48
2022-10-05T11:16:19.920Z,988.49
2022-10-05T11:17:19.207Z,988.43
2022-10-05T11:18:19.207Z,988.46
2022-10-05T11:19:19.197Z,988.45
2022-10-05T11:20:19.175Z,988.45
2022-10-05T11:21:19.217Z,988.48
2022-10-05T11:22:19.176Z,988.42
2022-10-05T11:23:19.138Z,988.36
2022-10-05T11:24:19.129Z,988.35
2022-10-05T11:25:19.138Z,988.31
2022-10-05T11:26:19.134Z,988.31
2022-10-05T11:27:19.137Z,988.31
2022-10-05T11:28:19.154Z,988.29
2022-10-05T11:29:19.089Z,988.34
2022-10-05T11:30:19.077Z,988.23
2022-10-05T11:31:19.124Z,988.25
2022-10-05T11:32:19.079Z,988.21
2022-10-05T11:33:19.040Z,988.20
2022-10-05T11:34:19.021Z,988.21
2022-10-05T11:35:19.040Z,988.19
2022-10-05T11:36:19.001Z,988.20
2022-10-05T11:37:19.042Z,988.16
2022-10-05T11:38:18.982Z,988.12
2022-10-05T11:39:18.980Z,988.15
2022-10-05T11:40:18.972Z,988.10
2022-10-05T11:41:18.943Z,988.08
2022-10-05T11:42:18.953Z,987.99
2022-10-05T11:43:18.933Z,988.05
2022-10-05T11:44:18.916Z,988.02
2022-10-05T11:45:18.905Z,988.05
2022-10-05T11:46:18.972Z,988.06
2022-10-05T11:47:18.885Z,988.08
2022-10-05T11:48:18.875Z,988.08
2022-10-05T11:49:18.856Z,988.01
2022-10-05T11:50:18.863Z,988.01
2022-10-05T11:51:18.858Z,987.91
2022-10-05T11:52:18.835Z,987.89
2022-10-05T11:53:18.817Z,987.95
2022-10-05T11:54:18.839Z,987.98
2022-10-05T11:55:18.807Z,987.92
2022-10-05T11:56:18.819Z,987.95
2022-10-05T11:57:19.496Z,987.89
2022-10-05T11:58:18.768Z,987.86
2022-10-05T11:59:18.783Z,987.89
2022-10-05T12:00:18.749Z,987.91
2022-10-05T12:01:18.730Z,987.83
2022-10-05T12:02:18.781Z,987.77
2022-10-05T12:03:18.782Z,987.72
2022-10-05T12:04:18.712Z,987.69
2022-10-05T12:05:18.691Z,987.71
2022-10-05T12:06:18.711Z,987.62
2022-10-05T12:07:18.682Z,987.70
2022-10-05T12:08:18.663Z,987.74
2022-10-05T12:09:18.674Z,987.62
2022-10-05T12:10:18.673Z,987.67
2022-10-05T12:11:18.634Z,987.66
2022-10-05T12:12:18.624Z,987.70
2022-10-05T12:13:18.655Z,987.65
2022-10-05T12:14:18.617Z,987.59
2022-10-05T12:15:18.593Z,987.58
2022-10-05T12:16:18.697Z,987.59
2022-10-05T12:17:18.578Z,987.48
2022-10-05T12:18:18.577Z,987.46
2022-10-05T12:19:18.547Z,987.61
2022-10-05T12:20:18.555Z,987.52
2022-10-05T12:21:18.575Z,987.51
2022-10-05T12:22:18.519Z,987.50
2022-10-05T12:23:18.518Z,987.45
2022-10-05T12:24:21.190Z,987.53
2022-10-05T12:25:18.500Z,987.46
2022-10-05T12:26:18.491Z,987.49
2022-10-05T12:27:18.511Z,987.50
2022-10-05T12:28:18.542Z,987.43